sensor_id;sensor_type;location;lat;lon;timestamp;pressure;altitude;pressure_sealevel;temperature;humidity
21863;BME280;11096;51.338;12.524;2023-03-25T00:01:56;99014.78;;;12.79;nan
21863;BME280;11096;51.338;12.524;2023-03-25T00:04:22;99022.38;;;12.45;nan
21863;BME280;11096;51.338;12.524;2023-03-25T00:06:54;99020.06;;;12.14;nan
21863;BME280;11096;51.338;12.524;2023-03-25T00:09:20;99017.97;;;12.55;nan
21863;BME280;11096;51.338;12.524;2023-03-25T00:11:49;99016.19;;;12.92;nan
21863;BME280;11096;51.338;12.524;2023-03-25T00:14:14;99010.97;;;12.74;nan
21863;BME280;11096;51.338;12.524;2023-03-25T00:16:41;98991.31;;;12.79;nan
21863;BME280;11096;51.338;12.524;2023-03-25T00:19:07;98991.41;;;12.87;nan
21863;BME280;11096;51.338;12.524;2023-03-25T00:21:34;98993.28;;;12.95;nan
21863;BME280;11096;51.338;12.524;2023-03-25T00:24:00;98993.09;;;12.79;nan
21863;BME280;11096;51.338;12.524;2023-03-25T00:26:26;98992.16;;;12.80;nan
21863;BME280;11096;51.338;12.524;2023-03-25T00:28:54;98995.03;;;12.77;nan
21863;BME280;11096;51.338;12.524;2023-03-25T00:31:19;98995.22;;;12.93;nan
21863;BME280;11096;51.338;12.524;2023-03-25T00:33:45;98998.63;;;12.94;nan
21863;BME280;11096;51.338;12.524;2023-03-25T00:36:11;98998.69;;;13.02;nan
21863;BME280;11096;51.338;12.524;2023-03-25T00:38:38;99001.31;;;13.02;nan
21863;BME280;11096;51.338;12.524;2023-03-25T00:41:18;98999.44;;;12.76;nan
21863;BME280;11096;51.338;12.524;2023-03-25T00:43:48;99001.31;;;12.84;nan
21863;BME280;11096;51.338;12.524;2023-03-25T00:46:14;99005.03;;;12.99;nan
21863;BME280;11096;51.338;12.524;2023-03-25T00:48:40;99007.47;;;12.65;nan
21863;BME280;11096;51.338;12.524;2023-03-25T00:51:06;98999.59;;;12.93;nan
21863;BME280;11096;51.338;12.524;2023-03-25T00:53:34;98997.88;;;13.01;nan
21863;BME280;11096;51.338;12.524;2023-03-25T00:56:00;98992.22;;;12.88;nan
21863;BME280;11096;51.338;12.524;2023-03-25T00:58:27;98983.78;;;12.94;nan
21863;BME280;11096;51.338;12.524;2023-03-25T01:00:52;98987.75;;;13.16;nan
21863;BME280;11096;51.338;12.524;2023-03-25T01:03:24;98980.13;;;13.23;nan
21863;BME280;11096;51.338;12.524;2023-03-25T01:05:50;98988.03;;;13.49;nan
21863;BME280;11096;51.338;12.524;2023-03-25T01:08:19;98987.19;;;13.48;nan
21863;BME280;11096;51.338;12.524;2023-03-25T01:10:51;98983.72;;;13.40;nan
21863;BME280;11096;51.338;12.524;2023-03-25T01:13:18;98982.56;;;13.34;nan
21863;BME280;11096;51.338;12.524;2023-03-25T01:15:43;98966.78;;;13.26;nan
21863;BME280;11096;51.338;12.524;2023-03-25T01:18:08;98974.25;;;13.21;nan
21863;BME280;11096;51.338;12.524;2023-03-25T01:20:34;98967.03;;;13.32;nan
21863;BME280;11096;51.338;12.524;2023-03-25T01:22:59;98965.38;;;13.49;nan
21863;BME280;11096;51.338;12.524;2023-03-25T01:25:25;98963.53;;;13.42;nan
21863;BME280;11096;51.338;12.524;2023-03-25T01:27:50;98956.03;;;13.47;nan
21863;BME280;11096;51.338;12.524;2023-03-25T01:30:15;98958.47;;;13.48;nan
21863;BME280;11096;51.338;12.524;2023-03-25T01:32:41;98956.19;;;13.71;nan
21863;BME280;11096;51.338;12.524;2023-03-25T01:35:07;98954.03;;;13.67;nan
21863;BME280;11096;51.338;12.524;2023-03-25T01:37:32;98945.66;;;13.55;nan
21863;BME280;11096;51.338;12.524;2023-03-25T01:40:01;98951.97;;;13.44;nan
21863;BME280;11096;51.338;12.524;2023-03-25T01:42:26;98951.50;;;13.49;nan
21863;BME280;11096;51.338;12.524;2023-03-25T01:47:17;98938.09;;;13.26;nan
21863;BME280;11096;51.338;12.524;2023-03-25T01:49:44;98945.41;;;13.40;nan
21863;BME280;11096;51.338;12.524;2023-03-25T01:52:17;98933.00;;;13.42;nan
21863;BME280;11096;51.338;12.524;2023-03-25T01:55:01;98934.78;;;13.68;nan
21863;BME280;11096;51.338;12.524;2023-03-25T01:57:27;98926.13;;;13.67;nan
21863;BME280;11096;51.338;12.524;2023-03-25T01:59:55;98926.09;;;13.59;nan
21863;BME280;11096;51.338;12.524;2023-03-25T02:02:21;98916.72;;;13.74;nan
21863;BME280;11096;51.338;12.524;2023-03-25T02:04:54;98910.38;;;13.77;nan
21863;BME280;11096;51.338;12.524;2023-03-25T02:07:38;98918.41;;;13.84;nan
21863;BME280;11096;51.338;12.524;2023-03-25T02:10:09;98926.34;;;13.74;nan
21863;BME280;11096;51.338;12.524;2023-03-25T02:12:35;98914.25;;;13.73;nan
21863;BME280;11096;51.338;12.524;2023-03-25T02:15:02;98908.56;;;13.78;nan
21863;BME280;11096;51.338;12.524;2023-03-25T02:17:51;98920.38;;;13.90;nan
21863;BME280;11096;51.338;12.524;2023-03-25T02:20:43;98905.84;;;13.87;nan
21863;BME280;11096;51.338;12.524;2023-03-25T02:42:19;98895.16;;;13.38;nan
21863;BME280;11096;51.338;12.524;2023-03-25T02:45:03;98891.25;;;13.68;nan
21863;BME280;11096;51.338;12.524;2023-03-25T02:47:37;98888.91;;;13.57;nan
21863;BME280;11096;51.338;12.524;2023-03-25T02:50:09;98884.38;;;13.41;nan
21863;BME280;11096;51.338;12.524;2023-03-25T02:52:43;98888.16;;;13.21;nan
21863;BME280;11096;51.338;12.524;2023-03-25T02:55:13;98888.25;;;13.11;nan
21863;BME280;11096;51.338;12.524;2023-03-25T02:57:45;98894.25;;;13.03;nan
21863;BME280;11096;51.338;12.524;2023-03-25T03:00:15;98897.88;;;13.10;nan
21863;BME280;11096;51.338;12.524;2023-03-25T03:03:09;98898.22;;;13.34;nan
21863;BME280;11096;51.338;12.524;2023-03-25T03:05:37;98893.56;;;13.45;nan
21863;BME280;11096;51.338;12.524;2023-03-25T03:11:36;98906.78;;;13.26;nan
21863;BME280;11096;51.338;12.524;2023-03-25T03:14:16;98897.72;;;13.30;nan
21863;BME280;11096;51.338;12.524;2023-03-25T03:19:41;98898.31;;;13.50;nan
21863;BME280;11096;51.338;12.524;2023-03-25T03:22:32;98902.41;;;13.52;nan
21863;BME280;11096;51.338;12.524;2023-03-25T03:27:50;98886.50;;;13.72;nan
21863;BME280;11096;51.338;12.524;2023-03-25T03:30:30;98892.78;;;13.53;nan
21863;BME280;11096;51.338;12.524;2023-03-25T03:33:05;98890.13;;;13.71;nan
21863;BME280;11096;51.338;12.524;2023-03-25T03:35:38;98892.78;;;13.87;nan
21863;BME280;11096;51.338;12.524;2023-03-25T03:38:11;98898.44;;;13.40;nan
21863;BME280;11096;51.338;12.524;2023-03-25T03:40:40;98902.25;;;13.54;nan
21863;BME280;11096;51.338;12.524;2023-03-25T03:43:14;98896.97;;;13.72;nan
21863;BME280;11096;51.338;12.524;2023-03-25T03:45:44;98892.94;;;13.86;nan
21863;BME280;11096;51.338;12.524;2023-03-25T03:48:22;98894.78;;;13.93;nan
21863;BME280;11096;51.338;12.524;2023-03-25T03:50:54;98895.00;;;13.74;nan
21863;BME280;11096;51.338;12.524;2023-03-25T03:53:35;98898.22;;;13.68;nan
21863;BME280;11096;51.338;12.524;2023-03-25T03:56:11;98906.47;;;13.81;nan
21863;BME280;11096;51.338;12.524;2023-03-25T03:58:40;98906.16;;;13.84;nan
21863;BME280;11096;51.338;12.524;2023-03-25T04:01:19;98907.91;;;13.75;nan
21863;BME280;11096;51.338;12.524;2023-03-25T04:06:37;98915.72;;;13.75;nan
21863;BME280;11096;51.338;12.524;2023-03-25T04:09:27;98921.84;;;13.58;nan
21863;BME280;11096;51.338;12.524;2023-03-25T04:12:02;98920.19;;;13.83;nan
21863;BME280;11096;51.338;12.524;2023-03-25T04:14:29;98917.06;;;13.80;nan
21863;BME280;11096;51.338;12.524;2023-03-25T04:16:55;98932.88;;;13.78;nan
21863;BME280;11096;51.338;12.524;2023-03-25T04:19:20;98932.06;;;13.78;nan
21863;BME280;11096;51.338;12.524;2023-03-25T04:21:46;98928.41;;;13.62;nan
21863;BME280;11096;51.338;12.524;2023-03-25T04:24:15;98926.72;;;13.87;nan
21863;BME280;11096;51.338;12.524;2023-03-25T04:26:41;98924.66;;;13.99;nan
21863;BME280;11096;51.338;12.524;2023-03-25T04:29:07;98923.16;;;13.88;nan
21863;BME280;11096;51.338;12.524;2023-03-25T04:31:34;98932.16;;;13.68;nan
21863;BME280;11096;51.338;12.524;2023-03-25T04:34:00;98934.78;;;14.02;nan
21863;BME280;11096;51.338;12.524;2023-03-25T04:36:26;98932.34;;;14.01;nan
21863;BME280;11096;51.338;12.524;2023-03-25T04:38:58;98937.50;;;13.92;nan
21863;BME280;11096;51.338;12.524;2023-03-25T04:41:24;98945.41;;;14.01;nan
21863;BME280;11096;51.338;12.524;2023-03-25T04:43:49;98948.88;;;14.17;nan
21863;BME280;11096;51.338;12.524;2023-03-25T04:46:16;98946.25;;;14.17;nan
21863;BME280;11096;51.338;12.524;2023-03-25T04:48:42;98954.00;;;13.59;nan
21863;BME280;11096;51.338;12.524;2023-03-25T04:51:09;98946.88;;;14.03;nan
21863;BME280;11096;51.338;12.524;2023-03-25T04:53:36;98948.28;;;13.89;nan
21863;BME280;11096;51.338;12.524;2023-03-25T04:56:04;98948.13;;;14.33;nan
21863;BME280;11096;51.338;12.524;2023-03-25T04:58:29;98946.03;;;14.03;nan
21863;BME280;11096;51.338;12.524;2023-03-25T05:00:55;98945.53;;;13.91;nan
21863;BME280;11096;51.338;12.524;2023-03-25T05:03:21;98947.53;;;14.05;nan
21863;BME280;11096;51.338;12.524;2023-03-25T05:05:49;98943.75;;;14.00;nan
21863;BME280;11096;51.338;12.524;2023-03-25T05:08:15;98935.09;;;13.99;nan
21863;BME280;11096;51.338;12.524;2023-03-25T05:10:41;98938.09;;;13.78;nan
21863;BME280;11096;51.338;12.524;2023-03-25T05:13:08;98937.56;;;14.01;nan
21863;BME280;11096;51.338;12.524;2023-03-25T05:15:34;98933.84;;;14.11;nan
21863;BME280;11096;51.338;12.524;2023-03-25T05:18:10;98929.69;;;13.92;nan
21863;BME280;11096;51.338;12.524;2023-03-25T05:20:37;98937.59;;;13.48;nan
21863;BME280;11096;51.338;12.524;2023-03-25T05:23:05;98933.84;;;13.43;nan
21863;BME280;11096;51.338;12.524;2023-03-25T05:25:30;98937.97;;;13.09;nan
21863;BME280;11096;51.338;12.524;2023-03-25T05:27:59;98931.19;;;12.99;nan
21863;BME280;11096;51.338;12.524;2023-03-25T05:30:32;98936.56;;;13.15;nan
21863;BME280;11096;51.338;12.524;2023-03-25T05:33:06;98931.03;;;13.18;nan
21863;BME280;11096;51.338;12.524;2023-03-25T05:35:32;98934.31;;;13.20;nan
21863;BME280;11096;51.338;12.524;2023-03-25T05:37:57;98939.84;;;12.99;nan
21863;BME280;11096;51.338;12.524;2023-03-25T05:40:22;98937.56;;;12.60;nan
21863;BME280;11096;51.338;12.524;2023-03-25T05:42:49;98935.69;;;12.88;nan
21863;BME280;11096;51.338;12.524;2023-03-25T05:45:19;98929.97;;;12.85;nan
21863;BME280;11096;51.338;12.524;2023-03-25T05:47:45;98933.50;;;13.20;nan
21863;BME280;11096;51.338;12.524;2023-03-25T05:50:11;98935.75;;;13.15;nan
21863;BME280;11096;51.338;12.524;2023-03-25T05:52:39;98941.19;;;12.85;nan
21863;BME280;11096;51.338;12.524;2023-03-25T05:55:07;98946.03;;;12.98;nan
21863;BME280;11096;51.338;12.524;2023-03-25T05:57:34;98939.84;;;13.17;nan
21863;BME280;11096;51.338;12.524;2023-03-25T06:00:00;98954.56;;;13.44;nan
21863;BME280;11096;51.338;12.524;2023-03-25T06:02:26;98942.06;;;13.30;nan
21863;BME280;11096;51.338;12.524;2023-03-25T06:04:52;98957.78;;;13.38;nan
21863;BME280;11096;51.338;12.524;2023-03-25T06:07:17;98957.47;;;13.41;nan
21863;BME280;11096;51.338;12.524;2023-03-25T06:09:47;98964.38;;;13.50;nan
21863;BME280;11096;51.338;12.524;2023-03-25T06:12:14;98963.81;;;13.65;nan
21863;BME280;11096;51.338;12.524;2023-03-25T06:14:40;98960.25;;;13.40;nan
21863;BME280;11096;51.338;12.524;2023-03-25T06:17:13;98960.63;;;13.79;nan
21863;BME280;11096;51.338;12.524;2023-03-25T06:19:38;98955.22;;;13.72;nan
21863;BME280;11096;51.338;12.524;2023-03-25T06:22:05;98954.81;;;13.59;nan
21863;BME280;11096;51.338;12.524;2023-03-25T06:24:34;98955.72;;;13.76;nan
21863;BME280;11096;51.338;12.524;2023-03-25T06:27:00;98962.97;;;13.90;nan
21863;BME280;11096;51.338;12.524;2023-03-25T06:29:25;98956.75;;;13.83;nan
21863;BME280;11096;51.338;12.524;2023-03-25T06:31:51;98951.09;;;13.96;nan
21863;BME280;11096;51.338;12.524;2023-03-25T06:34:16;98961.91;;;13.75;nan
21863;BME280;11096;51.338;12.524;2023-03-25T06:36:41;98961.66;;;14.29;nan
21863;BME280;11096;51.338;12.524;2023-03-25T06:39:07;98954.72;;;14.54;nan
21863;BME280;11096;51.338;12.524;2023-03-25T06:41:32;98964.63;;;14.42;nan
21863;BME280;11096;51.338;12.524;2023-03-25T06:44:00;98966.00;;;14.12;nan
21863;BME280;11096;51.338;12.524;2023-03-25T06:46:26;98970.34;;;13.95;nan
21863;BME280;11096;51.338;12.524;2023-03-25T06:48:51;98975.72;;;14.36;nan
21863;BME280;11096;51.338;12.524;2023-03-25T06:51:16;98967.56;;;14.39;nan
21863;BME280;11096;51.338;12.524;2023-03-25T06:53:42;98969.69;;;14.35;nan
21863;BME280;11096;51.338;12.524;2023-03-25T06:56:07;98972.09;;;14.63;nan
21863;BME280;11096;51.338;12.524;2023-03-25T06:58:33;98972.56;;;14.16;nan
21863;BME280;11096;51.338;12.524;2023-03-25T07:00:59;98978.13;;;14.64;nan
21863;BME280;11096;51.338;12.524;2023-03-25T07:03:28;98977.34;;;14.79;nan
21863;BME280;11096;51.338;12.524;2023-03-25T07:05:54;98972.66;;;14.41;nan
21863;BME280;11096;51.338;12.524;2023-03-25T07:08:19;98972.88;;;14.55;nan
21863;BME280;11096;51.338;12.524;2023-03-25T07:10:44;98971.97;;;14.97;nan
21863;BME280;11096;51.338;12.524;2023-03-25T07:13:10;98972.16;;;15.04;nan
21863;BME280;11096;51.338;12.524;2023-03-25T07:15:36;98967.38;;;15.32;nan
21863;BME280;11096;51.338;12.524;2023-03-25T07:18:01;98972.41;;;15.66;nan
21863;BME280;11096;51.338;12.524;2023-03-25T07:20:26;98975.88;;;15.42;nan
21863;BME280;11096;51.338;12.524;2023-03-25T07:22:54;98969.13;;;15.64;nan
21863;BME280;11096;51.338;12.524;2023-03-25T07:25:20;98978.34;;;16.16;nan
21863;BME280;11096;51.338;12.524;2023-03-25T07:27:46;98975.06;;;15.42;nan
21863;BME280;11096;51.338;12.524;2023-03-25T07:30:11;98994.72;;;15.21;nan
21863;BME280;11096;51.338;12.524;2023-03-25T07:32:37;99005.97;;;14.47;nan
21863;BME280;11096;51.338;12.524;2023-03-25T07:35:03;99019.47;;;14.68;nan
21863;BME280;11096;51.338;12.524;2023-03-25T07:37:29;99012.59;;;14.25;nan
21863;BME280;11096;51.338;12.524;2023-03-25T07:39:54;99021.41;;;14.24;nan
21863;BME280;11096;51.338;12.524;2023-03-25T07:42:20;99032.88;;;13.96;nan
21863;BME280;11096;51.338;12.524;2023-03-25T07:44:45;99028.16;;;13.30;nan
21863;BME280;11096;51.338;12.524;2023-03-25T07:47:10;99035.88;;;13.58;nan
21863;BME280;11096;51.338;12.524;2023-03-25T07:49:36;99038.91;;;13.27;nan
21863;BME280;11096;51.338;12.524;2023-03-25T07:52:05;99036.19;;;13.19;nan
21863;BME280;11096;51.338;12.524;2023-03-25T07:54:30;99041.03;;;13.14;nan
21863;BME280;11096;51.338;12.524;2023-03-25T07:56:56;99036.09;;;13.64;nan
21863;BME280;11096;51.338;12.524;2023-03-25T07:59:21;99042.19;;;13.73;nan
21863;BME280;11096;51.338;12.524;2023-03-25T08:01:47;99039.66;;;13.81;nan
21863;BME280;11096;51.338;12.524;2023-03-25T08:04:12;99034.34;;;13.73;nan
21863;BME280;11096;51.338;12.524;2023-03-25T08:06:38;99036.19;;;13.81;nan
21863;BME280;11096;51.338;12.524;2023-03-25T08:09:04;99036.28;;;14.23;nan
21863;BME280;11096;51.338;12.524;2023-03-25T08:11:31;99047.16;;;14.10;nan
21863;BME280;11096;51.338;12.524;2023-03-25T08:13:56;99040.41;;;14.00;nan
21863;BME280;11096;51.338;12.524;2023-03-25T08:16:21;99041.06;;;14.02;nan
21863;BME280;11096;51.338;12.524;2023-03-25T08:18:47;99043.53;;;14.03;nan
21863;BME280;11096;51.338;12.524;2023-03-25T08:21:20;99045.09;;;14.22;nan
21863;BME280;11096;51.338;12.524;2023-03-25T08:23:53;99049.47;;;14.48;nan
21863;BME280;11096;51.338;12.524;2023-03-25T08:26:25;99039.72;;;14.24;nan
21863;BME280;11096;51.338;12.524;2023-03-25T08:28:52;99052.38;;;13.84;nan
21863;BME280;11096;51.338;12.524;2023-03-25T08:31:19;99048.19;;;13.91;nan
21863;BME280;11096;51.338;12.524;2023-03-25T08:33:45;99040.75;;;14.39;nan
21863;BME280;11096;51.338;12.524;2023-03-25T08:36:10;99051.59;;;14.95;nan
21863;BME280;11096;51.338;12.524;2023-03-25T08:38:39;99052.88;;;14.82;nan
21863;BME280;11096;51.338;12.524;2023-03-25T08:41:04;99053.50;;;14.42;nan
21863;BME280;11096;51.338;12.524;2023-03-25T08:43:30;99047.66;;;14.14;nan
21863;BME280;11096;51.338;12.524;2023-03-25T08:45:56;99049.25;;;14.07;nan
21863;BME280;11096;51.338;12.524;2023-03-25T08:48:21;99054.28;;;14.34;nan
21863;BME280;11096;51.338;12.524;2023-03-25T08:50:48;99045.81;;;14.32;nan
21863;BME280;11096;51.338;12.524;2023-03-25T08:53:13;99053.28;;;14.27;nan
21863;BME280;11096;51.338;12.524;2023-03-25T08:55:39;99066.97;;;13.69;nan
21863;BME280;11096;51.338;12.524;2023-03-25T08:58:04;99055.03;;;13.66;nan
21863;BME280;11096;51.338;12.524;2023-03-25T09:00:33;99053.47;;;14.00;nan
21863;BME280;11096;51.338;12.524;2023-03-25T09:03:01;99049.00;;;14.18;nan
21863;BME280;11096;51.338;12.524;2023-03-25T09:05:26;99049.47;;;14.13;nan
21863;BME280;11096;51.338;12.524;2023-03-25T09:07:51;99053.81;;;13.79;nan
21863;BME280;11096;51.338;12.524;2023-03-25T09:10:17;99053.41;;;13.91;nan
21863;BME280;11096;51.338;12.524;2023-03-25T09:12:43;99053.91;;;13.69;nan
21863;BME280;11096;51.338;12.524;2023-03-25T09:15:09;99047.78;;;14.04;nan
21863;BME280;11096;51.338;12.524;2023-03-25T09:17:36;99050.25;;;14.06;nan
21863;BME280;11096;51.338;12.524;2023-03-25T09:20:01;99037.72;;;15.19;nan
21863;BME280;11096;51.338;12.524;2023-03-25T09:22:27;99032.28;;;17.35;nan
21863;BME280;11096;51.338;12.524;2023-03-25T09:24:52;99028.28;;;16.62;nan
21863;BME280;11096;51.338;12.524;2023-03-25T09:27:17;99018.59;;;16.63;nan
21863;BME280;11096;51.338;12.524;2023-03-25T09:29:43;99008.72;;;22.13;nan
21863;BME280;11096;51.338;12.524;2023-03-25T09:32:08;98997.03;;;20.47;nan
21863;BME280;11096;51.338;12.524;2023-03-25T09:34:34;99010.53;;;18.39;nan
21863;BME280;11096;51.338;12.524;2023-03-25T09:37:00;99009.72;;;17.94;nan
21863;BME280;11096;51.338;12.524;2023-03-25T09:39:27;98999.00;;;18.40;nan
21863;BME280;11096;51.338;12.524;2023-03-25T09:47:48;99017.50;;;16.09;nan
21863;BME280;11096;51.338;12.524;2023-03-25T09:50:16;99016.28;;;15.40;nan
21863;BME280;11096;51.338;12.524;2023-03-25T09:55:22;99020.72;;;15.31;nan
21863;BME280;11096;51.338;12.524;2023-03-25T09:57:56;99020.84;;;15.62;nan
21863;BME280;11096;51.338;12.524;2023-03-25T10:00:25;99028.56;;;15.39;nan
21863;BME280;11096;51.338;12.524;2023-03-25T10:02:53;99018.91;;;15.32;nan
21863;BME280;11096;51.338;12.524;2023-03-25T10:08:12;99018.47;;;16.17;nan
21863;BME280;11096;51.338;12.524;2023-03-25T10:10:49;99019.69;;;16.77;nan
21863;BME280;11096;51.338;12.524;2023-03-25T10:16:15;99005.38;;;26.34;nan
21863;BME280;11096;51.338;12.524;2023-03-25T10:21:26;98990.97;;;27.55;nan
21863;BME280;11096;51.338;12.524;2023-03-25T10:26:50;99006.25;;;19.82;nan
21863;BME280;11096;51.338;12.524;2023-03-25T10:29:21;98991.00;;;19.77;nan
21863;BME280;11096;51.338;12.524;2023-03-25T10:31:56;98991.91;;;18.92;nan
21863;BME280;11096;51.338;12.524;2023-03-25T10:34:34;99000.66;;;17.96;nan
21863;BME280;11096;51.338;12.524;2023-03-25T10:37:02;98991.03;;;17.74;nan
21863;BME280;11096;51.338;12.524;2023-03-25T10:39:32;98982.34;;;17.73;nan
21863;BME280;11096;51.338;12.524;2023-03-25T10:42:19;98991.34;;;17.94;nan
21863;BME280;11096;51.338;12.524;2023-03-25T10:44:48;98992.19;;;17.71;nan
21863;BME280;11096;51.338;12.524;2023-03-25T10:47:17;98990.84;;;17.75;nan
21863;BME280;11096;51.338;12.524;2023-03-25T10:49:46;98988.13;;;17.16;nan
21863;BME280;11096;51.338;12.524;2023-03-25T10:52:13;98994.69;;;17.50;nan
21863;BME280;11096;51.338;12.524;2023-03-25T10:54:42;98988.53;;;17.28;nan
21863;BME280;11096;51.338;12.524;2023-03-25T10:57:31;98989.06;;;19.92;nan
21863;BME280;11096;51.338;12.524;2023-03-25T11:00:07;98979.84;;;19.47;nan
21863;BME280;11096;51.338;12.524;2023-03-25T11:02:41;98980.06;;;18.81;nan
21863;BME280;11096;51.338;12.524;2023-03-25T11:05:06;98980.69;;;19.82;nan
21863;BME280;11096;51.338;12.524;2023-03-25T11:07:42;98972.59;;;19.56;nan
21863;BME280;11096;51.338;12.524;2023-03-25T11:10:19;98970.38;;;19.31;nan
21863;BME280;11096;51.338;12.524;2023-03-25T11:12:45;98991.00;;;17.82;nan
21863;BME280;11096;51.338;12.524;2023-03-25T11:15:19;98983.06;;;17.29;nan
21863;BME280;11096;51.338;12.524;2023-03-25T11:17:46;98982.78;;;16.78;nan
21863;BME280;11096;51.338;12.524;2023-03-25T11:20:19;98979.19;;;17.02;nan
21863;BME280;11096;51.338;12.524;2023-03-25T11:22:49;98980.75;;;17.49;nan
21863;BME280;11096;51.338;12.524;2023-03-25T11:25:24;98986.88;;;17.79;nan
21863;BME280;11096;51.338;12.524;2023-03-25T11:27:57;98974.63;;;17.19;nan
21863;BME280;11096;51.338;12.524;2023-03-25T11:30:24;98972.44;;;17.46;nan
21863;BME280;11096;51.338;12.524;2023-03-25T11:33:12;98978.81;;;18.26;nan
21863;BME280;11096;51.338;12.524;2023-03-25T11:35:41;98965.25;;;18.58;nan
21863;BME280;11096;51.338;12.524;2023-03-25T11:38:23;98962.66;;;18.43;nan
21863;BME280;11096;51.338;12.524;2023-03-25T11:40:55;98936.97;;;22.79;nan
21863;BME280;11096;51.338;12.524;2023-03-25T11:43:24;98929.22;;;23.53;nan
21863;BME280;11096;51.338;12.524;2023-03-25T11:45:51;98929.34;;;20.88;nan
21863;BME280;11096;51.338;12.524;2023-03-25T11:48:28;98932.78;;;21.48;nan
21863;BME280;11096;51.338;12.524;2023-03-25T11:50:58;98938.00;;;22.71;nan
21863;BME280;11096;51.338;12.524;2023-03-25T11:53:26;98925.84;;;22.19;nan
21863;BME280;11096;51.338;12.524;2023-03-25T11:56:01;98934.19;;;22.22;nan
21863;BME280;11096;51.338;12.524;2023-03-25T11:58:32;98921.69;;;22.75;nan
21863;BME280;11096;51.338;12.524;2023-03-25T12:01:03;98913.63;;;22.31;nan
21863;BME280;11096;51.338;12.524;2023-03-25T12:03:31;98902.72;;;23.28;nan
21863;BME280;11096;51.338;12.524;2023-03-25T12:06:16;98901.53;;;22.73;nan
21863;BME280;11096;51.338;12.524;2023-03-25T12:08:55;98888.88;;;25.02;nan
21863;BME280;11096;51.338;12.524;2023-03-25T12:11:31;98898.84;;;24.23;nan
21863;BME280;11096;51.338;12.524;2023-03-25T12:14:11;98901.22;;;22.57;nan
21863;BME280;11096;51.338;12.524;2023-03-25T12:19:40;98875.91;;;23.61;nan
21863;BME280;11096;51.338;12.524;2023-03-25T12:43:17;98904.38;;;21.95;nan
21863;BME280;11096;51.338;12.524;2023-03-25T12:45:56;98877.59;;;27.19;nan
21863;BME280;11096;51.338;12.524;2023-03-25T12:54:20;98837.44;;;33.00;nan
21863;BME280;11096;51.338;12.524;2023-03-25T13:00:36;98826.13;;;33.27;nan
21863;BME280;11096;51.338;12.524;2023-03-25T13:08:52;98827.53;;;22.28;nan
21863;BME280;11096;51.338;12.524;2023-03-25T13:11:29;98838.91;;;20.46;nan
21863;BME280;11096;51.338;12.524;2023-03-25T13:13:59;98868.19;;;19.55;nan
21863;BME280;11096;51.338;12.524;2023-03-25T13:16:28;98872.72;;;14.63;nan
21863;BME280;11096;51.338;12.524;2023-03-25T13:19:06;98901.09;;;13.04;nan
21863;BME280;11096;51.338;12.524;2023-03-25T13:21:39;98955.91;;;11.09;nan
21863;BME280;11096;51.338;12.524;2023-03-25T13:24:13;98991.28;;;9.81;nan
21863;BME280;11096;51.338;12.524;2023-03-25T13:26:43;98984.41;;;9.49;nan
21863;BME280;11096;51.338;12.524;2023-03-25T13:31:43;98979.53;;;9.14;nan
21863;BME280;11096;51.338;12.524;2023-03-25T13:34:23;98976.81;;;8.94;nan
21863;BME280;11096;51.338;12.524;2023-03-25T13:37:35;98975.84;;;8.95;nan
21863;BME280;11096;51.338;12.524;2023-03-25T13:40:02;98961.78;;;9.09;nan
21863;BME280;11096;51.338;12.524;2023-03-25T13:42:58;98948.13;;;12.77;nan
21863;BME280;11096;51.338;12.524;2023-03-25T13:45:30;98932.31;;;13.32;nan
21863;BME280;11096;51.338;12.524;2023-03-25T13:50:59;98944.72;;;13.64;nan
21863;BME280;11096;51.338;12.524;2023-03-25T14:12:51;98942.94;;;15.81;nan
21863;BME280;11096;51.338;12.524;2023-03-25T14:15:35;98934.47;;;16.41;nan
21863;BME280;11096;51.338;12.524;2023-03-25T14:18:03;98934.53;;;14.97;nan
21863;BME280;11096;51.338;12.524;2023-03-25T14:20:35;98940.88;;;15.11;nan
21863;BME280;11096;51.338;12.524;2023-03-25T14:23:07;98944.38;;;14.36;nan
21863;BME280;11096;51.338;12.524;2023-03-25T14:25:37;98940.41;;;14.24;nan
21863;BME280;11096;51.338;12.524;2023-03-25T14:28:06;98942.13;;;13.99;nan
21863;BME280;11096;51.338;12.524;2023-03-25T14:30:33;98950.75;;;14.42;nan
21863;BME280;11096;51.338;12.524;2023-03-25T14:33:00;98961.78;;;14.19;nan
21863;BME280;11096;51.338;12.524;2023-03-25T14:43:02;98927.53;;;13.88;nan
21863;BME280;11096;51.338;12.524;2023-03-25T14:45:36;98927.06;;;14.35;nan
21863;BME280;11096;51.338;12.524;2023-03-25T14:48:05;98939.50;;;13.99;nan
21863;BME280;11096;51.338;12.524;2023-03-25T14:50:35;98935.03;;;14.25;nan
21863;BME280;11096;51.338;12.524;2023-03-25T14:53:03;98943.91;;;14.41;nan
21863;BME280;11096;51.338;12.524;2023-03-25T14:55:39;98946.38;;;14.50;nan
21863;BME280;11096;51.338;12.524;2023-03-25T15:00:47;98943.44;;;14.45;nan
21863;BME280;11096;51.338;12.524;2023-03-25T15:03:17;98951.56;;;13.91;nan
21863;BME280;11096;51.338;12.524;2023-03-25T15:05:52;98939.84;;;13.95;nan
21863;BME280;11096;51.338;12.524;2023-03-25T15:09:09;98942.47;;;14.04;nan
21863;BME280;11096;51.338;12.524;2023-03-25T15:11:12;98933.63;;;13.62;nan
21863;BME280;11096;51.338;12.524;2023-03-25T15:13:45;98925.03;;;13.44;nan
21863;BME280;11096;51.338;12.524;2023-03-25T15:21:16;98933.28;;;13.91;nan
21863;BME280;11096;51.338;12.524;2023-03-25T15:26:39;98938.16;;;13.86;nan
21863;BME280;11096;51.338;12.524;2023-03-25T15:29:33;98947.22;;;13.22;nan
21863;BME280;11096;51.338;12.524;2023-03-25T15:32:13;98937.16;;;13.27;nan
21863;BME280;11096;51.338;12.524;2023-03-25T15:35:08;98944.56;;;12.78;nan
21863;BME280;11096;51.338;12.524;2023-03-25T15:40:29;98936.06;;;12.76;nan
21863;BME280;11096;51.338;12.524;2023-03-25T15:49:40;98934.75;;;13.34;nan